Time;durP1;ratioP1;P1;durP2;ratioP2;P2;SDS_P1;SDS_P2;PMS_P1;PMS_P2;Temp;Humidity;BMP_temperature;BMP_pressure;BME280_temperature;BME280_humidity;BME280_pressure;Samples;Min_cycle;Max_cycle;Signal;HPM_P1;HPM_P2
2021/04/20 00:00:11;;;;;;;16.80;7.20;;;7.20;99.90;;;;;;5095190;28;20200;-63
2021/04/20 00:02:37;;;;;;;11.65;7.03;;;7.10;99.90;;;;;;5095091;28;20205;-63
2021/04/20 00:05:05;;;;;;;10.53;6.80;;;7.00;1.00;;;;;;5094822;28;20262;-63
2021/04/20 00:07:31;;;;;;;16.83;7.68;;;7.00;1.00;;;;;;5094989;28;20176;-64
2021/04/20 00:09:57;;;;;;;12.37;8.07;;;6.80;1.00;;;;;;5095346;28;20497;-64
2021/04/20 00:12:22;;;;;;;13.20;8.10;;;6.80;1.00;;;;;;5094984;28;20227;-64
2021/04/20 00:14:48;;;;;;;13.53;7.20;;;6.90;1.00;;;;;;5094388;28;20552;-64
2021/04/20 00:17:13;;;;;;;12.53;7.67;;;7.00;1.00;;;;;;5094822;28;20179;-64
2021/04/20 00:19:39;;;;;;;13.77;7.10;;;6.90;1.00;;;;;;5094888;28;20647;-64
2021/04/20 00:22:05;;;;;;;9.20;6.73;;;6.70;1.00;;;;;;5094938;28;20268;-64
2021/04/20 00:24:30;;;;;;;12.37;6.23;;;6.40;1.00;;;;;;5094457;28;20183;-63
2021/04/20 00:26:56;;;;;;;13.43;6.60;;;6.30;1.00;;;;;;5094895;28;20187;-63
2021/04/20 00:29:21;;;;;;;11.37;7.30;;;6.30;1.00;;;;;;5094570;28;20198;-63
2021/04/20 00:31:47;;;;;;;8.67;7.40;;;6.40;1.00;;;;;;5093583;28;20187;-64
2021/04/20 00:34:12;;;;;;;11.40;7.77;;;6.40;1.00;;;;;;5094157;28;20233;-64
2021/04/20 00:36:38;;;;;;;10.13;7.30;;;6.50;1.00;;;;;;5094638;28;20237;-64
2021/04/20 00:39:04;;;;;;;13.33;8.00;;;6.50;1.00;;;;;;5094414;28;20276;-64
2021/04/20 00:41:29;;;;;;;9.57;7.00;;;6.60;1.00;;;;;;5094553;28;20178;-64
2021/04/20 00:43:55;;;;;;;8.80;7.07;;;6.40;1.00;;;;;;5093055;28;20434;-64
2021/04/20 00:46:23;;;;;;;15.30;8.80;;;6.30;1.00;;;;;;5094359;28;20172;-63
2021/04/20 00:48:48;;;;;;;11.10;7.10;;;6.20;1.00;;;;;;5094191;28;20493;-63
2021/04/20 00:51:14;;;;;;;16.93;8.23;;;6.20;1.00;;;;;;5094186;28;20190;-64
2021/04/20 00:53:40;;;;;;;15.10;8.60;;;6.50;4.10;;;;;;5093185;28;20621;-64
2021/04/20 00:56:06;;;;;;;16.83;8.70;;;6.80;1.00;;;;;;5094043;28;20232;-64
2021/04/20 00:58:32;;;;;;;10.90;8.38;;;6.70;1.00;;;;;;5093967;28;20200;-64
2021/04/20 01:00:59;;;;;;;12.02;8.02;;;6.70;1.00;;;;;;5094048;28;20176;-64
2021/04/20 01:03:25;;;;;;;14.20;9.13;;;6.80;1.00;;;;;;5093904;28;20176;-64
2021/04/20 01:05:51;;;;;;;12.48;7.40;;;6.70;1.00;;;;;;5093862;28;20191;-64
2021/04/20 01:08:19;;;;;;;13.80;8.15;;;6.50;1.00;;;;;;5093732;28;20204;-63
2021/04/20 01:10:52;;;;;;;12.32;8.50;;;6.60;1.00;;;;;;5093745;28;20190;-64
2021/04/20 01:13:23;;;;;;;11.18;8.48;;;6.90;1.00;;;;;;5093688;28;20612;-64
2021/04/20 01:15:51;;;;;;;11.75;8.30;;;6.80;1.00;;;;;;5093492;28;20268;-64
2021/04/20 01:18:21;;;;;;;14.35;9.00;;;6.90;1.00;;;;;;5093568;28;20219;-64
2021/04/20 01:20:50;;;;;;;10.00;8.25;;;7.00;1.00;;;;;;5093724;28;20180;-64
2021/04/20 01:23:29;;;;;;;11.88;7.90;;;6.90;1.00;;;;;;5093691;28;20179;-64
2021/04/20 01:25:56;;;;;;;12.13;8.98;;;6.90;1.00;;;;;;5093307;28;20179;-64
2021/04/20 01:28:22;;;;;;;16.42;9.85;;;6.90;1.00;;;;;;5093552;28;20272;-64
2021/04/20 01:30:48;;;;;;;14.90;9.90;;;7.10;1.00;;;;;;5093550;28;20194;-65
2021/04/20 01:33:14;;;;;;;14.40;8.60;;;7.00;1.00;;;;;;5093184;28;20195;-64
2021/04/20 01:35:40;;;;;;;12.73;8.90;;;7.10;1.00;;;;;;5093255;28;20172;-63
2021/04/20 01:38:07;;;;;;;15.18;8.90;;;7.10;1.00;;;;;;5092315;28;20207;-64
2021/04/20 01:40:33;;;;;;;15.25;9.52;;;6.90;1.00;;;;;;5093287;28;20172;-64
2021/04/20 01:43:00;;;;;;;20.13;9.30;;;6.60;1.00;;;;;;5093497;28;20236;-64
2021/04/20 01:45:31;;;;;;;16.20;8.75;;;6.40;1.00;;;;;;5092972;28;20183;-62
2021/04/20 01:47:57;;;;;;;15.07;9.50;;;6.10;1.00;;;;;;5092257;28;20192;-63
2021/04/20 01:50:24;;;;;;;11.25;9.27;;;6.20;13.20;;;;;;5093174;28;20179;-60
2021/04/20 01:52:50;;;;;;;16.35;8.88;;;6.10;38.60;;;;;;5092922;28;20312;-60
2021/04/20 01:55:15;;;;;;;15.02;10.13;;;6.30;48.10;;;;;;5092755;28;20172;-59
2021/04/20 01:57:44;;;;;;;18.23;9.67;;;6.00;54.30;;;;;;5092908;28;20191;-60
2021/04/20 02:00:12;;;;;;;19.10;10.27;;;5.80;93.30;;;;;;5093081;28;20176;-60
2021/04/20 02:02:39;;;;;;;16.42;9.32;;;5.80;99.90;;;;;;5093427;28;20566;-60
2021/04/20 02:05:07;;;;;;;14.55;9.95;;;5.90;99.90;;;;;;5092580;28;20270;-60
2021/04/20 02:07:33;;;;;;;17.17;10.20;;;5.90;99.90;;;;;;5093028;28;20180;-60
2021/04/20 02:10:00;;;;;;;17.20;9.67;;;6.10;99.90;;;;;;5093167;28;20253;-60
2021/04/20 02:12:27;;;;;;;12.90;9.60;;;6.20;93.40;;;;;;5093068;28;20641;-60
2021/04/20 02:14:53;;;;;;;14.00;9.77;;;6.20;70.80;;;;;;5092720;28;20198;-60
2021/04/20 02:17:19;;;;;;;19.53;10.10;;;6.30;47.70;;;;;;5093554;28;20171;-60
2021/04/20 02:19:45;;;;;;;19.08;11.23;;;6.30;31.40;;;;;;5092647;28;20526;-60
2021/04/20 02:22:11;;;;;;;13.53;11.37;;;6.30;11.00;;;;;;5092928;28;20184;-60
2021/04/20 02:24:38;;;;;;;12.27;9.93;;;6.00;14.20;;;;;;5092410;28;20263;-60
2021/04/20 02:27:05;;;;;;;19.05;12.00;;;6.00;43.30;;;;;;5092893;28;20268;-60
2021/04/20 02:29:30;;;;;;;12.93;9.85;;;6.30;57.90;;;;;;5092768;28;20251;-60
2021/04/20 02:31:56;;;;;;;17.27;11.43;;;6.40;35.00;;;;;;5092981;28;20184;-60
2021/04/20 02:34:22;;;;;;;18.07;11.70;;;6.30;13.80;;;;;;5092251;28;20261;-60
2021/04/20 02:36:51;;;;;;;18.00;9.63;;;6.40;5.50;;;;;;5093040;28;20268;-59
2021/04/20 02:39:17;;;;;;;21.40;10.48;;;6.40;1.00;;;;;;5092692;28;20237;-60
2021/04/20 02:41:47;;;;;;;23.00;10.30;;;6.10;1.00;;;;;;5092785;28;20642;-60
2021/04/20 02:44:13;;;;;;;12.70;9.63;;;6.00;1.00;;;;;;5092069;28;20430;-60
2021/04/20 02:46:41;;;;;;;15.15;10.18;;;5.90;28.30;;;;;;5092678;28;20261;-59
2021/04/20 02:49:09;;;;;;;12.02;9.45;;;5.80;80.40;;;;;;5092476;28;20274;-59
2021/04/20 02:51:35;;;;;;;18.60;10.52;;;5.70;99.90;;;;;;5092668;28;20180;-59
2021/04/20 02:54:02;;;;;;;17.35;10.27;;;5.90;99.10;;;;;;5092282;28;20178;-59
2021/04/20 02:56:30;;;;;;;15.63;9.82;;;5.70;79.50;;;;;;5093203;28;20187;-59
2021/04/20 02:58:59;;;;;;;15.80;9.88;;;5.70;58.50;;;;;;5092385;28;20240;-59
2021/04/20 03:01:27;;;;;;;15.00;11.00;;;5.70;67.90;;;;;;5092332;28;20183;-60
2021/04/20 03:03:54;;;;;;;15.70;9.38;;;5.70;63.80;;;;;;5092203;28;20274;-59
2021/04/20 03:06:39;;;;;;;12.52;9.57;;;5.60;59.60;;;;;;5092454;28;20180;-59
2021/04/20 03:09:04;;;;;;;13.75;8.65;;;5.50;31.70;;;;;;5089765;28;20195;-59
2021/04/20 03:11:36;;;;;;;13.60;9.20;;;5.60;22.30;;;;;;5091392;28;20194;-59
2021/04/20 03:14:06;;;;;;;16.70;9.70;;;5.70;1.90;;;;;;5091815;28;20172;-59
2021/04/20 03:16:33;;;;;;;12.82;9.90;;;5.60;1.00;;;;;;5094872;28;20230;-59
2021/04/20 03:19:00;;;;;;;14.63;9.77;;;5.60;1.00;;;;;;5095884;28;20603;-59
2021/04/20 03:21:26;;;;;;;14.95;9.02;;;5.60;1.00;;;;;;5095954;28;20175;-59
2021/04/20 03:23:53;;;;;;;12.57;9.27;;;5.60;1.00;;;;;;5095105;28;20259;-59
2021/04/20 03:26:25;;;;;;;12.32;8.05;;;5.60;1.00;;;;;;5096160;28;20520;-59
2021/04/20 03:28:58;;;;;;;13.63;9.48;;;5.60;1.00;;;;;;5095939;28;20187;-59
2021/04/20 03:31:25;;;;;;;12.50;8.18;;;5.50;1.00;;;;;;5095703;28;20639;-59
2021/04/20 03:34:05;;;;;;;13.77;10.18;;;5.50;1.10;;;;;;5094852;28;20184;-59
2021/04/20 03:36:39;;;;;;;13.57;8.57;;;5.50;1.00;;;;;;5095842;28;20189;-59
2021/04/20 03:39:16;;;;;;;12.93;9.30;;;5.40;1.00;;;;;;5095687;28;20599;-59
2021/04/20 03:41:50;;;;;;;17.02;8.07;;;5.40;1.00;;;;;;5095693;28;20839;-59
2021/04/20 03:44:22;;;;;;;12.70;9.07;;;5.50;1.00;;;;;;5094773;28;20266;-59
2021/04/20 03:46:50;;;;;;;11.98;10.23;;;5.60;1.00;;;;;;5095569;28;20176;-59
2021/04/20 03:49:31;;;;;;;12.80;8.52;;;5.50;1.00;;;;;;5095378;28;20183;-59
2021/04/20 03:51:58;;;;;;;12.13;9.30;;;5.50;1.00;;;;;;5095297;28;20266;-59
2021/04/20 03:54:27;;;;;;;14.20;8.60;;;5.50;1.00;;;;;;5094760;28;20211;-59
2021/04/20 03:56:57;;;;;;;17.17;8.77;;;5.50;1.00;;;;;;5095190;28;20199;-59
2021/04/20 03:59:25;;;;;;;14.00;8.45;;;5.50;1.00;;;;;;5095300;28;20238;-59
2021/04/20 04:01:56;;;;;;;12.20;8.75;;;5.50;1.00;;;;;;5095495;28;20650;-59
2021/04/20 04:04:23;;;;;;;9.32;7.30;;;5.50;1.00;;;;;;5094614;28;20227;-63
2021/04/20 04:06:50;;;;;;;12.93;8.13;;;5.60;1.00;;;;;;5095063;28;20176;-63
2021/04/20 04:09:18;;;;;;;22.95;9.43;;;5.50;1.00;;;;;;5094832;28;20215;-63
2021/04/20 04:12:00;;;;;;;13.40;7.93;;;5.60;1.00;;;;;;5095211;28;20191;-63
2021/04/20 04:14:28;;;;;;;9.57;6.80;;;5.60;1.00;;;;;;5094527;28;20201;-63
2021/04/20 04:17:00;;;;;;;11.77;8.40;;;5.60;1.00;;;;;;5095101;28;20640;-63
2021/04/20 04:19:31;;;;;;;11.13;9.00;;;5.60;1.00;;;;;;5094801;28;20234;-63
2021/04/20 04:22:04;;;;;;;11.85;8.02;;;5.60;1.00;;;;;;5094909;28;20178;-63
2021/04/20 04:24:37;;;;;;;11.68;7.55;;;5.60;1.00;;;;;;5094120;28;20262;-63
2021/04/20 04:27:05;;;;;;;9.75;7.30;;;5.70;1.00;;;;;;5094646;28;20191;-63
2021/04/20 04:29:31;;;;;;;9.10;6.35;;;5.80;1.00;;;;;;5093302;28;20199;-63
2021/04/20 04:31:58;;;;;;;10.10;7.73;;;5.70;1.00;;;;;;5094684;28;20176;-63
2021/04/20 04:34:25;;;;;;;21.58;7.57;;;5.80;1.00;;;;;;5093650;28;20520;-63
2021/04/20 04:36:51;;;;;;;10.60;7.50;;;5.90;1.00;;;;;;5094642;28;20193;-64
2021/04/20 04:39:18;;;;;;;17.83;7.57;;;6.00;1.00;;;;;;5094777;28;20525;-64
2021/04/20 04:41:44;;;;;;;12.60;8.95;;;6.10;1.00;;;;;;5093519;28;20206;-63
2021/04/20 04:44:11;;;;;;;13.80;7.35;;;6.40;1.00;;;;;;5093947;28;20263;-63
2021/04/20 04:46:37;;;;;;;12.57;7.50;;;6.60;1.00;;;;;;5094370;28;20240;-63
2021/04/20 04:49:03;;;;;;;14.40;8.13;;;7.10;1.00;;;;;;5094514;28;20558;-63
2021/04/20 04:51:30;;;;;;;13.53;7.50;;;7.30;99.90;;;;;;5094060;28;20209;-60
2021/04/20 04:53:57;;;;;;;13.15;6.80;;;7.60;1.00;;;;;;5093522;28;20178;-60
2021/04/20 04:56:24;;;;;;;8.95;5.88;;;8.00;1.00;;;;;;5094428;28;20176;-60
2021/04/20 04:58:52;;;;;;;9.55;6.97;;;8.00;1.00;;;;;;5094172;28;20256;-60
2021/04/20 05:01:19;;;;;;;12.13;8.32;;;8.20;99.90;;;;;;5094118;28;20184;-63
2021/04/20 05:03:45;;;;;;;9.77;6.22;;;8.40;99.90;;;;;;5093579;28;20208;-64
2021/04/20 05:06:16;;;;;;;12.73;6.80;;;9.30;1.00;;;;;;5094013;28;20215;-64
2021/04/20 05:08:44;;;;;;;10.20;6.53;;;9.40;1.00;;;;;;5094060;28;20191;-64
2021/04/20 05:11:12;;;;;;;15.02;7.53;;;10.20;99.90;;;;;;5093821;28;20277;-64
2021/04/20 05:13:38;;;;;;;8.00;5.40;;;10.60;1.00;;;;;;5093487;28;20511;-64
2021/04/20 05:16:04;;;;;;;8.50;6.23;;;11.10;1.00;;;;;;5093285;28;20186;-64
2021/04/20 05:18:31;;;;;;;12.93;7.50;;;11.00;1.00;;;;;;5093608;28;20203;-64
2021/04/20 05:20:56;;;;;;;9.45;6.90;;;10.60;1.00;;;;;;5094074;28;20172;-64
2021/04/20 05:23:25;;;;;;;14.87;8.17;;;10.70;1.00;;;;;;5093739;28;20189;-64
2021/04/20 05:25:52;;;;;;;9.85;6.38;;;11.30;1.00;;;;;;5093106;28;20175;-64
2021/04/20 05:28:17;;;;;;;8.85;6.45;;;10.70;1.00;;;;;;5093842;28;20266;-64
2021/04/20 05:30:43;;;;;;;10.07;6.70;;;10.60;1.00;;;;;;5093924;28;20210;-64
2021/04/20 05:33:09;;;;;;;13.70;9.00;;;11.40;1.00;;;;;;5093024;28;20437;-65
2021/04/20 05:35:34;;;;;;;13.10;8.20;;;13.00;99.90;;;;;;5093245;28;20186;-61
2021/04/20 05:38:00;;;;;;;10.43;5.97;;;14.60;1.00;;;;;;5093068;28;20241;-61
2021/04/20 05:40:27;;;;;;;11.03;6.50;;;15.60;1.00;;;;;;5093626;28;20179;-61
2021/04/20 05:42:59;;;;;;;12.05;7.30;;;17.00;1.00;;;;;;5093542;28;20198;-61
2021/04/20 05:45:25;;;;;;;9.77;6.05;;;15.80;1.00;;;;;;5091731;28;20183;-61
2021/04/20 05:47:53;;;;;;;9.57;6.77;;;14.30;1.00;;;;;;5093505;28;20194;-61
2021/04/20 05:50:23;;;;;;;10.88;6.30;;;13.10;1.00;;;;;;5093384;28;20202;-61
2021/04/20 05:52:49;;;;;;;11.70;6.10;;;13.40;19.80;;;;;;5093328;28;20619;-61
2021/04/20 05:55:15;;;;;;;18.23;8.60;;;14.40;1.00;;;;;;5092395;28;20516;-61
2021/04/20 05:57:48;;;;;;;13.00;6.38;;;13.40;8.50;;;;;;5092689;28;20215;-61
2021/04/20 06:00:16;;;;;;;13.10;6.18;;;13.00;23.60;;;;;;5092862;28;20163;-61
2021/04/20 06:02:42;;;;;;;15.20;7.72;;;14.60;1.00;;;;;;5093243;28;20179;-64
2021/04/20 06:05:12;;;;;;;9.38;5.95;;;16.00;1.00;;;;;;5091543;28;20545;-64
2021/04/20 06:07:44;;;;;;;14.85;7.82;;;16.10;1.00;;;;;;5092757;28;20270;-65
2021/04/20 06:10:11;;;;;;;14.10;7.45;;;15.40;1.00;;;;;;5092818;28;20222;-61
2021/04/20 06:12:37;;;;;;;8.73;5.93;;;15.60;1.00;;;;;;5092676;28;20236;-64
2021/04/20 06:15:04;;;;;;;9.52;6.15;;;16.90;1.00;;;;;;5092398;28;20561;-61
2021/04/20 06:17:32;;;;;;;7.85;5.30;;;15.80;1.00;;;;;;5092886;28;20194;-61
2021/04/20 06:19:58;;;;;;;10.23;5.85;;;14.60;1.00;;;;;;5078744;28;20212;-61
2021/04/20 06:22:25;;;;;;;12.50;6.47;;;16.80;1.00;;;;;;5080112;28;20294;-61
2021/04/20 06:24:50;;;;;;;7.63;6.15;;;17.60;1.00;;;;;;5071549;28;20620;-64
2021/04/20 06:27:17;;;;;;;8.63;6.10;;;16.30;1.00;;;;;;5071586;28;20176;-65
2021/04/20 06:29:43;;;;;;;8.13;5.75;;;15.70;1.00;;;;;;5072396;28;20180;-65
2021/04/20 06:32:12;;;;;;;7.87;5.60;;;16.70;1.00;;;;;;5072748;28;20267;-65
2021/04/20 06:34:38;;;;;;;9.13;7.00;;;17.70;1.00;;;;;;5072085;28;20838;-65
2021/04/20 06:37:06;;;;;;;11.02;6.30;;;18.90;1.00;;;;;;5082758;28;20580;-62
2021/04/20 06:39:33;;;;;;;11.47;6.13;;;20.00;1.00;;;;;;5092499;28;20322;-62
2021/04/20 06:42:00;;;;;;;11.27;6.13;;;19.70;1.00;;;;;;5090983;28;20438;-62
2021/04/20 06:44:30;;;;;;;9.75;5.88;;;17.70;1.00;;;;;;5075711;28;20263;-63
2021/04/20 06:47:23;;;;;;;7.18;6.15;;;16.90;1.00;;;;;;5084192;28;20176;-62
2021/04/20 06:50:04;;;;;;;10.85;5.60;;;17.00;1.00;;;;;;5072321;28;20180;-62
2021/04/20 06:52:35;;;;;;;10.38;6.40;;;16.40;1.00;;;;;;5093363;28;20271;-62
2021/04/20 06:55:04;;;;;;;6.00;5.30;;;16.40;1.00;;;;;;5094900;28;20235;-63
2021/04/20 06:57:38;;;;;;;7.70;5.25;;;16.40;1.00;;;;;;5095322;28;20270;-62
2021/04/20 07:00:25;;;;;;;9.75;6.80;;;16.50;1.00;;;;;;5086586;28;20203;-64
2021/04/20 07:03:00;;;;;;;8.55;6.10;;;15.80;1.00;;;;;;5075836;28;20696;-66
2021/04/20 07:05:45;;;;;;;7.78;4.90;;;15.50;1.00;;;;;;5073439;28;20190;-65
2021/04/20 07:08:44;;;;;;;7.35;5.78;;;14.70;1.00;;;;;;5075158;28;20207;-65
2021/04/20 07:11:15;;;;;;;7.63;6.05;;;14.40;1.00;;;;;;5075510;28;20180;-64
2021/04/20 07:13:46;;;;;;;9.00;5.10;;;13.80;1.00;;;;;;5075192;28;20188;-64
2021/04/20 07:16:32;;;;;;;5.95;5.18;;;13.20;1.00;;;;;;5075444;28;20617;-64
2021/04/20 07:19:19;;;;;;;8.30;5.90;;;12.30;1.00;;;;;;5075246;28;20200;-65
2021/04/20 07:22:15;;;;;;;8.73;6.20;;;12.00;1.00;;;;;;5074539;28;20616;-64
2021/04/20 07:24:44;;;;;;;14.70;5.90;;;12.20;1.00;;;;;;5075320;28;20172;-63
2021/04/20 07:27:35;;;;;;;7.35;5.38;;;12.80;1.00;;;;;;5075137;28;20180;-63
2021/04/20 07:30:14;;;;;;;9.45;5.88;;;12.80;1.00;;;;;;5075858;28;20195;-63
2021/04/20 07:33:06;;;;;;;7.15;6.13;;;12.90;1.00;;;;;;5074541;28;20237;-63
2021/04/20 07:35:47;;;;;;;10.48;4.97;;;12.60;1.00;;;;;;5073955;28;20184;-66
2021/04/20 07:38:48;;;;;;;8.00;5.25;;;12.30;1.00;;;;;;5074085;28;20282;-67
2021/04/20 07:41:37;;;;;;;9.38;4.95;;;12.40;1.00;;;;;;5075379;28;20575;-67
2021/04/20 07:44:15;;;;;;;5.38;4.85;;;12.30;1.00;;;;;;5074156;28;20186;-66
2021/04/20 07:47:05;;;;;;;10.48;5.20;;;12.20;1.00;;;;;;5075411;28;20183;-65
2021/04/20 07:49:36;;;;;;;9.13;5.43;;;12.20;1.00;;;;;;5074212;28;20180;-65
2021/04/20 07:52:15;;;;;;;8.18;4.80;;;12.30;1.00;;;;;;5074719;28;20686;-64
2021/04/20 07:54:53;;;;;;;9.88;5.57;;;12.70;1.00;;;;;;5074478;28;20266;-64
2021/04/20 07:57:25;;;;;;;6.65;4.90;;;13.00;1.00;;;;;;5075257;28;20180;-64
2021/04/20 07:59:53;;;;;;;6.43;4.78;;;13.20;1.00;;;;;;5075077;28;20226;-64
2021/04/20 08:02:22;;;;;;;7.03;4.68;;;13.30;1.00;;;;;;5074901;28;20238;-67
2021/04/20 08:05:08;;;;;;;10.95;5.15;;;13.20;1.00;;;;;;5071714;28;20278;-66
2021/04/20 08:07:55;;;;;;;6.03;4.38;;;13.10;1.00;;;;;;5066562;28;20276;-65
2021/04/20 08:10:28;;;;;;;6.05;4.07;;;12.60;1.00;;;;;;5067252;28;20176;-65
2021/04/20 08:13:06;;;;;;;9.50;5.00;;;12.90;1.00;;;;;;5073510;28;20179;-65
2021/04/20 08:15:38;;;;;;;5.97;4.05;;;13.10;1.00;;;;;;5074002;28;20169;-64
2021/04/20 08:18:11;;;;;;;6.25;4.70;;;12.50;1.00;;;;;;5074660;28;20184;-64
2021/04/20 08:20:37;;;;;;;6.85;4.20;;;12.80;1.00;;;;;;5074176;28;20605;-64
2021/04/20 08:23:05;;;;;;;6.50;4.03;;;12.90;1.00;;;;;;5074440;28;20198;-67
2021/04/20 08:25:37;;;;;;;6.05;4.05;;;13.00;1.00;;;;;;5072785;28;20191;-67
2021/04/20 08:28:14;;;;;;;7.95;5.07;;;12.90;1.00;;;;;;5082809;28;20205;-67
2021/04/20 08:31:12;;;;;;;9.02;4.55;;;12.90;1.00;;;;;;5094068;28;20229;-65
2021/04/20 08:33:43;;;;;;;11.52;5.30;;;13.00;1.00;;;;;;5061229;28;20639;-65
2021/04/20 08:36:42;;;;;;;6.43;4.07;;;13.00;1.00;;;;;;5092993;28;20262;-65
2021/04/20 08:39:29;;;;;;;6.43;4.70;;;13.40;1.00;;;;;;5094583;28;20538;-65
2021/04/20 08:42:06;;;;;;;7.70;3.83;;;13.40;1.00;;;;;;5094451;28;20175;-66
2021/04/20 08:44:56;;;;;;;8.60;3.72;;;13.80;1.00;;;;;;5093763;28;20202;-64
2021/04/20 08:47:26;;;;;;;6.15;3.80;;;13.50;1.00;;;;;;5094553;28;20175;-66
2021/04/20 08:50:12;;;;;;;6.15;3.70;;;12.90;1.00;;;;;;5086548;28;20191;-63
2021/04/20 08:53:15;;;;;;;4.15;3.13;;;13.20;1.00;;;;;;5073721;28;20626;-66
2021/04/20 08:55:53;;;;;;;5.28;3.90;;;13.60;1.00;;;;;;5069022;28;20194;-65
2021/04/20 08:58:37;;;;;;;5.88;3.65;;;14.10;1.00;;;;;;5054616;28;20527;-64
2021/04/20 09:01:23;;;;;;;7.80;4.40;;;14.20;1.00;;;;;;5054316;28;20485;-67
2021/04/20 09:04:20;;;;;;;9.88;3.00;;;14.40;1.00;;;;;;5054258;28;20617;-66
2021/04/20 09:06:49;;;;;;;6.20;3.30;;;14.70;1.00;;;;;;5054463;28;20615;-63
2021/04/20 09:09:28;;;;;;;13.98;3.47;;;14.30;1.00;;;;;;5053770;28;20197;-63
2021/04/20 09:12:00;;;;;;;5.95;3.35;;;14.10;1.00;;;;;;5059052;28;20207;-63
2021/04/20 09:14:29;;;;;;;4.43;2.97;;;14.40;1.00;;;;;;5072240;28;20195;-63
2021/04/20 09:17:04;;;;;;;7.20;3.90;;;14.70;1.00;;;;;;5074519;28;20526;-65
2021/04/20 09:19:41;;;;;;;5.10;3.50;;;14.90;1.00;;;;;;5074485;28;20201;-62
2021/04/20 09:22:07;;;;;;;4.40;2.95;;;14.60;1.00;;;;;;5074117;28;20755;-65
2021/04/20 09:24:51;;;;;;;6.38;2.92;;;14.20;1.00;;;;;;5073350;28;20180;-63
2021/04/20 09:27:45;;;;;;;3.50;2.45;;;14.50;1.00;;;;;;5073284;28;20264;-64
2021/04/20 09:30:16;;;;;;;4.00;2.65;;;14.40;1.00;;;;;;5066647;28;20188;-64
2021/04/20 09:32:48;;;;;;;4.90;2.53;;;15.00;1.00;;;;;;5074232;28;20176;-65
2021/04/20 09:35:15;;;;;;;5.10;2.50;;;15.20;1.00;;;;;;5073172;28;20532;-64
2021/04/20 09:37:42;;;;;;;4.43;2.90;;;14.90;1.00;;;;;;5073901;28;20172;-65
2021/04/20 09:40:12;;;;;;;3.78;2.80;;;15.20;1.00;;;;;;5072885;28;20195;-64
2021/04/20 09:42:41;;;;;;;3.33;2.73;;;15.60;1.00;;;;;;5073757;28;20248;-64
2021/04/20 09:45:14;;;;;;;3.47;2.83;;;15.60;1.00;;;;;;5073385;28;20422;-63
2021/04/20 09:47:53;;;;;;;4.28;3.10;;;15.40;1.00;;;;;;5072594;28;20655;-64
2021/04/20 09:51:01;;;;;;;5.13;3.50;;;15.50;1.00;;;;;;5075297;28;20176;-65
2021/04/20 09:53:54;;;;;;;4.10;3.30;;;15.80;1.00;;;;;;5092313;28;20180;-66
2021/04/20 09:56:56;;;;;;;3.95;2.75;;;15.50;1.00;;;;;;5094012;28;20841;-65
2021/04/20 09:59:44;;;;;;;4.55;2.85;;;15.60;1.00;;;;;;5051312;28;20239;-65
2021/04/20 10:02:52;;;;;;;4.22;2.60;;;15.40;1.00;;;;;;5091677;28;20199;-61
2021/04/20 10:05:56;;;;;;;3.22;2.70;;;15.30;1.00;;;;;;5079133;28;20276;-62
2021/04/20 10:08:47;;;;;;;3.50;2.30;;;15.20;1.00;;;;;;5093792;28;20213;-60
2021/04/20 10:11:35;;;;;;;6.20;3.15;;;15.60;1.00;;;;;;5093995;28;20237;-62
2021/04/20 10:14:33;;;;;;;4.18;2.40;;;16.00;1.00;;;;;;5072756;28;20210;-61
2021/04/20 10:17:11;;;;;;;4.37;2.87;;;16.20;1.00;;;;;;5073348;28;20688;-61
2021/04/20 10:19:41;;;;;;;4.45;2.75;;;15.90;1.00;;;;;;5071964;28;20944;-63
2021/04/20 10:22:24;;;;;;;6.53;3.27;;;16.10;1.00;;;;;;5072193;28;20183;-63
2021/04/20 10:25:21;;;;;;;4.77;3.10;;;16.10;1.00;;;;;;5073864;28;20883;-67
2021/04/20 10:27:54;;;;;;;5.40;2.77;;;16.20;1.00;;;;;;5083451;28;20429;-67
2021/04/20 10:30:26;;;;;;;4.40;2.97;;;15.70;1.00;;;;;;5096850;28;20482;-68
2021/04/20 10:32:53;;;;;;;4.88;3.10;;;15.50;1.00;;;;;;5077314;28;20430;-67
2021/04/20 10:35:26;;;;;;;4.90;2.72;;;15.60;1.00;;;;;;5076880;28;20245;-67
2021/04/20 10:37:56;;;;;;;3.78;3.15;;;15.70;1.00;;;;;;5077384;28;20310;-66
2021/04/20 10:40:34;;;;;;;4.45;3.67;;;15.70;1.00;;;;;;5077150;28;20210;-67
2021/04/20 10:43:12;;;;;;;5.43;2.90;;;15.60;1.00;;;;;;5077173;28;20171;-66
2021/04/20 10:45:40;;;;;;;7.90;3.20;;;15.90;1.00;;;;;;5076766;28;20757;-66
2021/04/20 10:48:07;;;;;;;5.15;3.05;;;15.70;1.00;;;;;;5076796;28;20204;-67
2021/04/20 10:50:35;;;;;;;2.90;2.47;;;16.00;1.00;;;;;;5079232;28;20218;-67
2021/04/20 10:53:22;;;;;;;6.70;3.13;;;16.30;1.00;;;;;;5096357;28;20206;-67
2021/04/20 10:55:52;;;;;;;5.27;3.17;;;16.70;1.00;;;;;;5095386;28;20190;-67
2021/04/20 10:58:23;;;;;;;4.03;2.87;;;16.50;1.00;;;;;;5095946;28;20452;-66
2021/04/20 11:00:52;;;;;;;4.43;2.97;;;16.60;1.00;;;;;;5097072;28;20462;-67
2021/04/20 11:03:25;;;;;;;2.90;2.33;;;17.00;1.00;;;;;;5097115;28;20520;-66
2021/04/20 11:05:50;;;;;;;4.83;3.00;;;16.90;1.00;;;;;;5096326;28;20421;-63
2021/04/20 11:08:39;;;;;;;5.10;3.03;;;16.70;1.00;;;;;;5096708;28;20441;-62
2021/04/20 11:11:05;;;;;;;3.75;2.42;;;16.60;1.00;;;;;;5096600;28;20176;-61
2021/04/20 11:13:38;;;;;;;4.50;2.70;;;16.50;1.00;;;;;;5077750;28;20183;-62
2021/04/20 11:16:11;;;;;;;2.57;2.30;;;16.10;1.00;;;;;;5074793;28;21127;-62
2021/04/20 11:18:39;;;;;;;5.43;3.27;;;16.00;1.00;;;;;;5076278;28;20573;-63
2021/04/20 11:21:10;;;;;;;4.47;2.93;;;16.20;1.00;;;;;;5075898;28;20852;-63
2021/04/20 11:23:56;;;;;;;4.90;2.70;;;16.20;1.00;;;;;;5076241;28;20426;-62
2021/04/20 11:26:28;;;;;;;6.43;3.43;;;16.70;1.00;;;;;;5075449;28;20423;-63
2021/04/20 11:28:59;;;;;;;3.47;2.37;;;17.10;1.00;;;;;;5076562;28;20437;-63
2021/04/20 11:31:32;;;;;;;5.83;3.30;;;17.00;1.00;;;;;;5076281;28;20458;-63
2021/04/20 11:34:16;;;;;;;5.20;2.60;;;16.80;1.00;;;;;;5074712;28;20521;-62
2021/04/20 11:36:50;;;;;;;5.80;2.87;;;16.80;1.00;;;;;;5074321;28;20430;-63
2021/04/20 11:39:24;;;;;;;4.70;3.40;;;16.40;1.00;;;;;;5074615;28;20462;-63
2021/04/20 11:42:03;;;;;;;3.83;2.43;;;16.10;1.00;;;;;;5075441;28;20417;-63
2021/04/20 11:44:43;;;;;;;4.23;2.87;;;16.20;1.00;;;;;;5075653;28;20420;-66
2021/04/20 11:47:11;;;;;;;5.17;3.47;;;16.20;1.00;;;;;;5075776;28;20761;-66
2021/04/20 11:49:47;;;;;;;5.13;3.23;;;16.70;1.00;;;;;;5075796;28;20879;-66
2021/04/20 11:52:16;;;;;;;6.28;2.90;;;16.70;1.00;;;;;;5075710;28;20438;-66
2021/04/20 11:54:45;;;;;;;6.37;4.67;;;16.70;1.00;;;;;;5075174;28;20180;-66
2021/04/20 11:57:15;;;;;;;4.13;2.97;;;16.80;1.00;;;;;;5074525;28;20430;-66
2021/04/20 11:59:46;;;;;;;4.40;3.57;;;16.90;1.00;;;;;;5074652;28;20516;-65
2021/04/20 12:02:13;;;;;;;6.33;3.37;;;17.10;1.00;;;;;;5075451;28;20513;-65
2021/04/20 12:04:39;;;;;;;5.60;3.13;;;16.60;1.00;;;;;;5075109;28;20415;-65
2021/04/20 12:07:07;;;;;;;4.63;3.50;;;16.80;1.00;;;;;;5075352;28;20517;-66
2021/04/20 12:09:39;;;;;;;3.83;3.00;;;16.80;1.00;;;;;;5075463;28;20446;-65
2021/04/20 12:12:06;;;;;;;5.10;3.40;;;17.00;1.00;;;;;;5075309;28;20422;-66
2021/04/20 12:14:36;;;;;;;4.80;3.13;;;17.10;1.00;;;;;;5074689;28;20419;-65
2021/04/20 12:17:02;;;;;;;3.90;3.07;;;16.70;1.00;;;;;;5075775;28;20540;-62
2021/04/20 12:19:31;;;;;;;5.07;3.33;;;16.60;1.00;;;;;;5075187;28;21062;-62
2021/04/20 12:21:58;;;;;;;3.73;2.87;;;16.90;1.00;;;;;;5075163;28;20724;-65
2021/04/20 12:24:25;;;;;;;9.97;3.40;;;17.00;1.00;;;;;;5074537;28;20509;-63
2021/04/20 12:26:56;;;;;;;5.20;3.90;;;17.40;1.00;;;;;;5075318;28;20564;-65
2021/04/20 12:29:30;;;;;;;3.30;2.83;;;17.80;1.00;;;;;;5074829;28;20438;-64
2021/04/20 12:31:56;;;;;;;4.23;3.00;;;17.50;1.00;;;;;;5075056;28;20438;-65
2021/04/20 12:34:27;;;;;;;4.30;3.10;;;17.00;1.00;;;;;;5074388;28;20426;-64
2021/04/20 12:36:54;;;;;;;5.47;3.27;;;16.70;1.00;;;;;;5075008;28;20180;-64
2021/04/20 12:39:38;;;;;;;5.97;3.63;;;16.70;1.00;;;;;;5074944;28;20454;-63
2021/04/20 12:42:08;;;;;;;3.57;2.93;;;17.00;1.00;;;;;;5074911;28;20422;-63
2021/04/20 12:44:43;;;;;;;5.10;3.40;;;17.40;1.00;;;;;;5073943;28;20431;-61
2021/04/20 12:47:10;;;;;;;5.10;3.67;;;17.70;1.00;;;;;;5074903;28;20425;-61
2021/04/20 12:49:39;;;;;;;4.50;3.20;;;17.70;1.00;;;;;;5073639;28;20897;-61
2021/04/20 12:52:09;;;;;;;4.40;3.20;;;17.50;1.00;;;;;;5074045;28;20445;-61
2021/04/20 12:54:37;;;;;;;4.77;3.00;;;16.80;1.00;;;;;;5073863;28;20426;-61
2021/04/20 12:57:06;;;;;;;5.60;3.43;;;16.70;1.00;;;;;;5074278;28;20427;-61
2021/04/20 12:59:32;;;;;;;4.57;3.30;;;16.60;1.00;;;;;;5074473;28;20556;-61
2021/04/20 13:02:00;;;;;;;4.20;3.17;;;16.90;1.00;;;;;;5074483;28;20761;-66
2021/04/20 13:04:34;;;;;;;9.00;3.57;;;16.90;1.00;;;;;;5073724;28;20423;-64
2021/04/20 13:07:01;;;;;;;3.37;2.57;;;17.20;1.00;;;;;;5074322;28;20403;-64
2021/04/20 13:09:34;;;;;;;4.53;2.70;;;17.40;1.00;;;;;;5074104;28;20438;-63
2021/04/20 13:12:01;;;;;;;4.90;3.47;;;16.90;1.00;;;;;;5074069;28;20441;-63
2021/04/20 13:14:27;;;;;;;4.40;3.20;;;16.80;1.00;;;;;;5073625;28;20434;-65
2021/04/20 13:16:56;;;;;;;5.60;3.30;;;17.00;1.00;;;;;;5073890;28;20433;-66
2021/04/20 13:19:35;;;;;;;3.67;2.87;;;17.10;1.00;;;;;;5073900;28;20553;-63